PWSweather.com
Personal Weather Stations
Station Observations

LasarteES

Lat: 43.268748, Lon: -2.019531

Elevation: 55

Station Type: DAVIS VP2

http://www.meteolasarte.com/

Latest ConditionsUpdated 7:47:04 PM GMT+01:01 Saturday, Aug 24, 2019
Currently Today's Max Today's Min Today's Average
Temperature 72.7°F22.6°C 88.5°F31.4°C 69.6°F20.9°C 76.9°F24.9°C
Dew Point 72.7°F22.6°C 78.1°F25.6°C -8.3°F-22.4°C 49.8°F9.9°C
Winds 2.0 mph NNW3.2 kmh NNW 12.1 mph -19.5 kmh - - 3.8 mph 6.1 kmh
Wind Gusts 2.0 mph3.2 kmh 12.1 mph19.5 kmh - -
Humidity 0% 54% 0% 26%
Pressure 30.09 in1019.0 mb 30.09 in1019.0 mb 29.99 in1015.6 mb -
Hour Temp Dew Point Humidity Winds Wind Gusts Pressure Precip Precip Rate Daily Precip Total
07:47 PM 72.7°F22.6°C 72.7°F22.6°C 0% 2.0 mph NNW3.2 kmh NNW 2.0 mph3.2 kmh 30.09 in1019.0 mb - 0.00 in0.0 mm 0.00 in0.0 mm
07:32 PM 72.9°F22.7°C 72.9°F22.7°C 0% 2.9 mph NW4.7 kmh NW -- 30.08 in1018.6 mb - 0.00 in0.0 mm 0.00 in0.0 mm
07:17 PM 73.0°F22.8°C 73.0°F22.8°C 0% 2.0 mph N3.2 kmh N 2.0 mph3.2 kmh 30.08 in1018.6 mb - 0.00 in0.0 mm 0.00 in0.0 mm
07:02 PM 73.0°F22.8°C 73.0°F22.8°C 0% 2.0 mph NW3.2 kmh NW 2.0 mph3.2 kmh 30.08 in1018.6 mb - 0.00 in0.0 mm 0.00 in0.0 mm
06:47 PM 73.2°F22.9°C 73.2°F22.9°C 0% 2.9 mph NW4.7 kmh NW 4.9 mph7.9 kmh 30.08 in1018.6 mb - 0.00 in0.0 mm 0.00 in0.0 mm
06:32 PM 73.6°F23.1°C 73.6°F23.1°C 0% 2.0 mph NW3.2 kmh NW -- 30.08 in1018.6 mb - 0.00 in0.0 mm 0.00 in0.0 mm
06:17 PM 73.6°F23.1°C 73.6°F23.1°C 0% 4.0 mph NW6.4 kmh NW -- 30.08 in1018.6 mb - 0.00 in0.0 mm 0.00 in0.0 mm
06:02 PM 73.8°F23.2°C 73.8°F23.2°C 0% 4.0 mph NW6.4 kmh NW 8.1 mph13.0 kmh 30.08 in1018.6 mb - 0.00 in0.0 mm 0.00 in0.0 mm
05:47 PM 74.1°F23.4°C 74.1°F23.4°C 0% 4.9 mph NW7.9 kmh NW 6.9 mph11.1 kmh 30.08 in1018.6 mb - 0.00 in0.0 mm 0.00 in0.0 mm
05:32 PM 74.3°F23.5°C 74.3°F23.5°C 0% 4.0 mph NW6.4 kmh NW 4.0 mph6.4 kmh 30.08 in1018.6 mb - 0.00 in0.0 mm 0.00 in0.0 mm
05:17 PM 74.7°F23.7°C 74.7°F23.7°C 0% 4.0 mph 6.4 kmh 6.0 mph9.7 kmh 30.07 in1018.3 mb - 0.00 in0.0 mm 0.00 in0.0 mm
05:02 PM 74.7°F23.7°C 74.7°F23.7°C 0% 4.0 mph NW6.4 kmh NW 0.9 mph1.4 kmh 30.07 in1018.3 mb - 0.00 in0.0 mm 0.00 in0.0 mm
04:47 PM 75.0°F23.9°C 75.0°F23.9°C 0% 4.0 mph NW6.4 kmh NW 6.9 mph11.1 kmh 30.07 in1018.3 mb - 0.00 in0.0 mm 0.00 in0.0 mm
04:32 PM 75.2°F24.0°C 75.2°F24.0°C 0% 4.0 mph NNE6.4 kmh NNE 4.0 mph6.4 kmh 30.07 in1018.3 mb - 0.00 in0.0 mm 0.00 in0.0 mm
04:17 PM 75.6°F24.2°C 75.6°F24.2°C 0% 4.0 mph NNE6.4 kmh NNE 4.9 mph7.9 kmh 30.07 in1018.3 mb - 0.00 in0.0 mm 0.00 in0.0 mm
04:02 PM 75.9°F24.4°C 75.9°F24.4°C 0% 4.9 mph N7.9 kmh N 6.9 mph11.1 kmh 30.07 in1018.3 mb - 0.00 in0.0 mm 0.00 in0.0 mm
03:47 PM 76.8°F24.9°C 76.8°F24.9°C 0% 4.9 mph NW7.9 kmh NW 4.0 mph6.4 kmh 30.07 in1018.3 mb - 0.00 in0.0 mm 0.00 in0.0 mm
03:32 PM 78.1°F25.6°C 78.1°F25.6°C 0% 4.9 mph N7.9 kmh N 6.9 mph11.1 kmh 30.06 in1017.9 mb - 0.00 in0.0 mm 0.00 in0.0 mm
03:17 PM 78.4°F25.8°C 1.9°F-16.7°C 5% 4.9 mph NW7.9 kmh NW 0.9 mph1.4 kmh 30.06 in1017.9 mb - 0.00 in0.0 mm 0.00 in0.0 mm
03:02 PM 79.0°F26.1°C 2.3°F-16.5°C 5% 4.9 mph NW7.9 kmh NW 6.0 mph9.7 kmh 30.06 in1017.9 mb - 0.00 in0.0 mm 0.00 in0.0 mm
02:47 PM 79.0°F26.1°C 9.7°F-12.4°C 7% 6.9 mph WNW11.1 kmh WNW 0.9 mph1.4 kmh 30.06 in1017.9 mb - 0.00 in0.0 mm 0.00 in0.0 mm
02:32 PM 79.2°F26.2°C -8.3°F-22.4°C 3% 6.0 mph N9.7 kmh N 2.0 mph3.2 kmh 30.06 in1017.9 mb - 0.00 in0.0 mm 0.00 in0.0 mm
02:17 PM 79.2°F26.2°C 2.5°F-16.4°C 5% 6.9 mph 11.1 kmh 6.0 mph9.7 kmh 30.05 in1017.6 mb - 0.00 in0.0 mm 0.00 in0.0 mm
02:02 PM 79.5°F26.4°C 30.9°F-0.6°C 17% 6.0 mph N9.7 kmh N 8.1 mph13.0 kmh 30.05 in1017.6 mb - 0.00 in0.0 mm 0.00 in0.0 mm
01:47 PM 79.9°F26.6°C 26.4°F-3.1°C 14% 6.9 mph NW11.1 kmh NW 6.9 mph11.1 kmh 30.05 in1017.6 mb - 0.00 in0.0 mm 0.00 in0.0 mm
01:32 PM 80.8°F27.1°C 37.2°F2.9°C 21% 4.9 mph N7.9 kmh N 4.0 mph6.4 kmh 30.05 in1017.6 mb - 0.00 in0.0 mm 0.00 in0.0 mm
01:17 PM 81.0°F27.2°C 32.0°F0.0°C 17% 4.9 mph NW7.9 kmh NW 6.0 mph9.7 kmh 30.05 in1017.6 mb - 0.00 in0.0 mm 0.00 in0.0 mm
01:02 PM 81.3°F27.4°C 38.8°F3.8°C 22% 6.0 mph NW9.7 kmh NW 8.1 mph13.0 kmh 30.05 in1017.6 mb - 0.00 in0.0 mm 0.00 in0.0 mm
12:47 PM 81.5°F27.5°C 44.2°F6.8°C 27% 6.0 mph NNE9.7 kmh NNE 4.0 mph6.4 kmh 30.04 in1017.3 mb - 0.00 in0.0 mm 0.00 in0.0 mm
12:32 PM 82.2°F27.9°C 51.8°F11.0°C 35% 6.0 mph NE9.7 kmh NE 2.9 mph4.7 kmh 30.04 in1017.3 mb - 0.00 in0.0 mm 0.00 in0.0 mm
12:17 PM 82.8°F28.2°C 57.4°F14.1°C 42% 6.0 mph N9.7 kmh N 6.0 mph9.7 kmh 30.04 in1017.3 mb - 0.00 in0.0 mm 0.00 in0.0 mm
12:02 PM 84.2°F29.0°C 64.0°F17.8°C 51% 4.9 mph NW7.9 kmh NW 6.9 mph11.1 kmh 30.04 in1017.3 mb - 0.00 in0.0 mm 0.00 in0.0 mm
11:47 AM 84.9°F29.4°C 66.4°F19.1°C 54% 4.0 mph NNE6.4 kmh NNE 4.9 mph7.9 kmh 30.04 in1017.3 mb - 0.00 in0.0 mm 0.00 in0.0 mm
11:32 AM 85.8°F29.9°C 65.7°F18.7°C 51% 2.0 mph N3.2 kmh N -- 30.04 in1017.3 mb - 0.00 in0.0 mm 0.00 in0.0 mm
11:17 AM 85.5°F29.7°C 64.8°F18.2°C 50% 0.9 mph SSE1.4 kmh SSE -- 30.03 in1016.9 mb - 0.00 in0.0 mm 0.00 in0.0 mm
11:02 AM 86.2°F30.1°C 67.1°F19.5°C 53% 0.9 mph E1.4 kmh E 2.0 mph3.2 kmh 30.03 in1016.9 mb - 0.00 in0.0 mm 0.00 in0.0 mm
10:47 AM 86.5°F30.3°C 66.7°F19.3°C 52% 0.9 mph SE1.4 kmh SE -- 30.03 in1016.9 mb - 0.00 in0.0 mm 0.00 in0.0 mm
10:32 AM 88.0°F31.1°C 67.6°F19.8°C 51% 0.9 mph ESE1.4 kmh ESE -- 30.03 in1016.9 mb - 0.00 in0.0 mm 0.00 in0.0 mm
10:17 AM 88.5°F31.4°C 65.7°F18.7°C 47% Calm Calm -- 30.02 in1016.6 mb - 0.00 in0.0 mm 0.00 in0.0 mm
10:02 AM 88.3°F31.3°C 63.7°F17.6°C 44% Calm Calm -- 30.02 in1016.6 mb - 0.00 in0.0 mm 0.00 in0.0 mm
09:47 AM 87.4°F30.8°C 64.8°F18.2°C 47% Calm Calm -- 30.02 in1016.6 mb - 0.00 in0.0 mm 0.00 in0.0 mm
09:32 AM 85.6°F29.8°C 62.4°F16.9°C 46% 0.9 mph SE1.4 kmh SE -- 30.02 in1016.6 mb - 0.00 in0.0 mm 0.00 in0.0 mm
09:17 AM 84.9°F29.4°C 62.4°F16.9°C 47% Calm Calm -- 30.02 in1016.6 mb - 0.00 in0.0 mm 0.00 in0.0 mm
09:02 AM 83.8°F28.8°C 61.5°F16.4°C 47% Calm Calm -- 30.02 in1016.6 mb - 0.00 in0.0 mm 0.00 in0.0 mm
08:47 AM 81.9°F27.7°C 61.3°F16.3°C 50% Calm Calm 2.0 mph3.2 kmh 30.02 in1016.6 mb - 0.00 in0.0 mm 0.00 in0.0 mm
08:32 AM 79.9°F26.6°C 60.6°F15.9°C 52% 4.0 mph N6.4 kmh N 4.9 mph7.9 kmh 30.02 in1016.6 mb - 0.00 in0.0 mm 0.00 in0.0 mm
08:17 AM 79.5°F26.4°C 61.3°F16.3°C 54% 0.9 mph E1.4 kmh E -- 30.01 in1016.3 mb - 0.00 in0.0 mm 0.00 in0.0 mm
08:02 AM 77.9°F25.5°C 59.9°F15.5°C 54% 2.0 mph E3.2 kmh E 0.9 mph1.4 kmh 30.01 in1016.3 mb - 0.00 in0.0 mm 0.00 in0.0 mm
07:47 AM 76.3°F24.6°C 57.9°F14.4°C 53% 2.9 mph E4.7 kmh E 2.0 mph3.2 kmh 30.00 in1015.9 mb - 0.00 in0.0 mm 0.00 in0.0 mm
07:32 AM 74.7°F23.7°C 54.9°F12.7°C 50% 2.0 mph SE3.2 kmh SE 4.0 mph6.4 kmh 30.00 in1015.9 mb - 0.00 in0.0 mm 0.00 in0.0 mm
07:17 AM 73.9°F23.3°C 52.5°F11.4°C 47% 2.0 mph ESE3.2 kmh ESE -- 30.00 in1015.9 mb - 0.00 in0.0 mm 0.00 in0.0 mm
07:02 AM 72.5°F22.5°C 46.2°F7.9°C 39% 2.0 mph ESE3.2 kmh ESE 2.0 mph3.2 kmh 30.00 in1015.9 mb - 0.00 in0.0 mm 0.00 in0.0 mm
06:47 AM 70.9°F21.6°C 33.3°F0.7°C 25% 0.9 mph ESE1.4 kmh ESE 0.9 mph1.4 kmh 30.00 in1015.9 mb - 0.00 in0.0 mm 0.00 in0.0 mm
06:32 AM 69.6°F20.9°C 14.7°F-9.6°C 12% Calm Calm -- 30.00 in1015.9 mb - 0.00 in0.0 mm 0.00 in0.0 mm
06:17 AM 69.6°F20.9°C 14.7°F-9.6°C 12% Calm Calm -- 30.00 in1015.9 mb - 0.00 in0.0 mm 0.00 in0.0 mm
06:02 AM 70.0°F21.1°C 20.1°F-6.6°C 15% Calm Calm -- 30.00 in1015.9 mb - 0.00 in0.0 mm 0.00 in0.0 mm
05:47 AM 70.3°F21.3°C 29.7°F-1.3°C 22% Calm Calm -- 30.00 in1015.9 mb - 0.00 in0.0 mm 0.00 in0.0 mm
05:32 AM 71.6°F22.0°C 41.0°F5.0°C 33% Calm Calm -- 30.00 in1015.9 mb - 0.00 in0.0 mm 0.00 in0.0 mm
05:17 AM 72.9°F22.7°C 47.8°F8.8°C 41% Calm Calm -- 30.00 in1015.9 mb - 0.00 in0.0 mm 0.00 in0.0 mm
05:02 AM 73.6°F23.1°C 51.4°F10.8°C 46% 0.9 mph SE1.4 kmh SE -- 29.99 in1015.6 mb - 0.00 in0.0 mm 0.00 in0.0 mm
04:47 AM 73.6°F23.1°C 52.2°F11.2°C 47% 2.9 mph SE4.7 kmh SE 2.0 mph3.2 kmh 30.00 in1015.9 mb - 0.00 in0.0 mm 0.00 in0.0 mm
04:32 AM 73.6°F23.1°C 52.2°F11.2°C 47% 2.9 mph ESE4.7 kmh ESE -- 30.00 in1015.9 mb - 0.00 in0.0 mm 0.00 in0.0 mm
04:17 AM 73.8°F23.2°C 52.3°F11.3°C 47% 4.9 mph SE7.9 kmh SE 2.0 mph3.2 kmh 30.00 in1015.9 mb - 0.00 in0.0 mm 0.00 in0.0 mm
04:02 AM 73.8°F23.2°C 52.3°F11.3°C 47% 4.9 mph ESE7.9 kmh ESE 6.9 mph11.1 kmh 30.00 in1015.9 mb - 0.00 in0.0 mm 0.00 in0.0 mm
03:47 AM 73.4°F23.0°C 50.7°F10.4°C 45% 4.9 mph SE7.9 kmh SE 2.0 mph3.2 kmh 30.00 in1015.9 mb - 0.00 in0.0 mm 0.00 in0.0 mm
03:32 AM 73.6°F23.1°C 50.9°F10.5°C 45% 4.9 mph ESE7.9 kmh ESE 6.0 mph9.7 kmh 30.00 in1015.9 mb - 0.00 in0.0 mm 0.00 in0.0 mm
03:17 AM 73.2°F22.9°C 49.5°F9.7°C 43% 4.9 mph ESE7.9 kmh ESE 6.9 mph11.1 kmh 30.00 in1015.9 mb - 0.00 in0.0 mm 0.00 in0.0 mm
03:02 AM 73.2°F22.9°C 48.0°F8.9°C 41% 4.0 mph E6.4 kmh E 2.9 mph4.7 kmh 30.01 in1016.3 mb - 0.00 in0.0 mm 0.00 in0.0 mm
02:47 AM 73.6°F23.1°C 48.4°F9.1°C 41% 6.0 mph SE9.7 kmh SE 4.9 mph7.9 kmh 30.01 in1016.3 mb - 0.00 in0.0 mm 0.00 in0.0 mm
02:32 AM 73.6°F23.1°C 44.2°F6.8°C 35% 10.1 mph ESE16.3 kmh ESE 8.9 mph14.3 kmh 30.01 in1016.3 mb - 0.00 in0.0 mm 0.00 in0.0 mm
02:17 AM 72.9°F22.7°C 38.7°F3.7°C 29% 12.1 mph SSE19.5 kmh SSE 10.1 mph16.3 kmh 30.01 in1016.3 mb - 0.00 in0.0 mm 0.00 in0.0 mm
02:02 AM 72.9°F22.7°C 38.7°F3.7°C 29% 10.1 mph SE16.3 kmh SE 12.1 mph19.5 kmh 30.01 in1016.3 mb - 0.00 in0.0 mm 0.00 in0.0 mm
01:47 AM 72.3°F22.4°C 32.4°F0.2°C 23% 6.9 mph SE11.1 kmh SE 8.1 mph13.0 kmh 30.01 in1016.3 mb - 0.00 in0.0 mm 0.00 in0.0 mm
01:32 AM 72.1°F22.3°C 27.7°F-2.4°C 19% 6.0 mph SE9.7 kmh SE 6.0 mph9.7 kmh 30.02 in1016.6 mb - 0.00 in0.0 mm 0.00 in0.0 mm
01:17 AM 72.3°F22.4°C 28.9°F-1.7°C 20% 6.9 mph SE11.1 kmh SE 6.0 mph9.7 kmh 30.02 in1016.6 mb - 0.00 in0.0 mm 0.00 in0.0 mm
01:02 AM 72.5°F22.5°C 27.9°F-2.3°C 19% 6.0 mph ESE9.7 kmh ESE 4.0 mph6.4 kmh 30.02 in1016.6 mb - 0.00 in0.0 mm 0.00 in0.0 mm
12:47 AM 72.7°F22.6°C 23.9°F-4.5°C 16% 6.9 mph SE11.1 kmh SE 8.1 mph13.0 kmh 30.02 in1016.6 mb - 0.00 in0.0 mm 0.00 in0.0 mm
12:32 AM 73.0°F22.8°C 19.2°F-7.1°C 13% 6.9 mph SE11.1 kmh SE 6.9 mph11.1 kmh 30.02 in1016.6 mb - 0.00 in0.0 mm 0.00 in0.0 mm
12:17 AM 72.9°F22.7°C 15.3°F-9.3°C 11% 6.9 mph SE11.1 kmh SE 8.9 mph14.3 kmh 30.02 in1016.6 mb - 0.00 in0.0 mm 0.00 in0.0 mm
12:02 AM 73.0°F22.8°C 13.3°F-10.4°C 10% 8.1 mph SE13.0 kmh SE 6.9 mph11.1 kmh 30.02 in1016.6 mb - 0.00 in0.0 mm 0.00 in0.0 mm